Time;durP1;ratioP1;P1;durP2;ratioP2;P2;SDS_P1;SDS_P2;PMS_P1;PMS_P2;Temp;Humidity;BMP_temperature;BMP_pressure;BME280_temperature;BME280_humidity;BME280_pressure;Samples;Min_cycle;Max_cycle;Signal;HPM_P1;HPM_P2
2021/10/18 00:01:26;;;;;;;0.00;0.00;;;10.40;99.90;;;;;;6298420;22;20047;-82
2021/10/18 00:03:52;;;;;;;0.15;0.15;;;10.40;99.90;;;;;;6298394;22;20444;-82
2021/10/18 00:06:19;;;;;;;0.08;0.08;;;10.40;99.90;;;;;;6272576;22;20072;-82
2021/10/18 00:08:46;;;;;;;0.00;0.00;;;10.40;99.90;;;;;;6248041;22;20019;-82
2021/10/18 00:11:12;;;;;;;0.00;0.00;;;10.40;99.90;;;;;;6272815;22;20023;-82
2021/10/18 00:13:39;;;;;;;0.00;0.00;;;10.40;99.90;;;;;;6298090;22;20399;-82
2021/10/18 00:16:06;;;;;;;0.00;0.00;;;10.40;99.90;;;;;;6298295;22;20022;-82
2021/10/18 00:18:33;;;;;;;0.00;0.00;;;10.40;99.90;;;;;;6297972;22;20043;-82
2021/10/18 00:20:59;;;;;;;0.00;0.00;;;10.40;99.90;;;;;;6272996;22;20467;-82
2021/10/18 00:23:26;;;;;;;0.00;0.00;;;10.40;99.90;;;;;;6272711;22;20015;-82
2021/10/18 00:25:53;;;;;;;0.00;0.00;;;10.40;99.90;;;;;;6247743;22;20015;-82
2021/10/18 00:28:20;;;;;;;0.00;0.00;;;10.40;99.90;;;;;;6323346;22;20016;-82
2021/10/18 00:30:48;;;;;;;0.40;0.20;;;10.30;99.90;;;;;;6272628;22;20015;-82
2021/10/18 00:33:15;;;;;;;0.00;0.00;;;10.40;99.90;;;;;;6298109;22;20020;-82
2021/10/18 00:35:42;;;;;;;0.03;0.03;;;10.30;99.90;;;;;;6272824;22;20466;-82
2021/10/18 00:38:08;;;;;;;0.20;0.20;;;10.30;99.90;;;;;;6247899;22;20309;-82
2021/10/18 00:40:35;;;;;;;0.00;0.00;;;10.30;99.90;;;;;;6297479;22;20025;-82
2021/10/18 00:43:02;;;;;;;0.00;0.00;;;10.30;99.90;;;;;;6272922;22;20098;-82
2021/10/18 00:45:29;;;;;;;0.00;0.00;;;10.30;99.90;;;;;;6297647;22;20015;-82
2021/10/18 00:47:57;;;;;;;0.00;0.00;;;10.30;99.90;;;;;;6247716;22;20026;-82
2021/10/18 00:50:24;;;;;;;0.00;0.00;;;10.30;99.90;;;;;;6272858;22;20467;-82
2021/10/18 00:52:52;;;;;;;0.10;0.10;;;10.30;99.90;;;;;;6272503;22;20015;-82
2021/10/18 00:55:19;;;;;;;0.00;0.00;;;10.20;99.90;;;;;;6272514;22;20012;-82
2021/10/18 00:57:48;;;;;;;0.10;0.10;;;10.20;99.90;;;;;;6297992;22;20015;-82
2021/10/18 01:00:15;;;;;;;0.00;0.00;;;10.20;99.90;;;;;;6297824;22;20011;-82
2021/10/18 01:02:42;;;;;;;0.00;0.00;;;10.30;99.90;;;;;;6272668;22;20090;-82
2021/10/18 01:05:10;;;;;;;0.00;0.00;;;10.20;99.90;;;;;;6297842;22;20023;-82
2021/10/18 01:07:36;;;;;;;0.00;0.00;;;10.20;99.90;;;;;;6272194;22;20015;-82
2021/10/18 01:10:04;;;;;;;0.10;0.10;;;10.20;99.90;;;;;;6323293;22;20018;-82
2021/10/18 01:12:30;;;;;;;0.00;0.00;;;10.30;99.90;;;;;;6297654;22;20012;-82
2021/10/18 01:14:57;;;;;;;0.00;0.00;;;10.30;99.90;;;;;;6247586;22;20026;-82
2021/10/18 01:17:24;;;;;;;0.52;0.20;;;10.30;99.90;;;;;;6297561;22;20054;-82
2021/10/18 01:19:51;;;;;;;0.00;0.00;;;10.30;99.90;;;;;;6272518;22;20443;-82
2021/10/18 01:22:17;;;;;;;0.10;0.10;;;10.30;99.90;;;;;;6322979;22;20065;-82
2021/10/18 01:24:44;;;;;;;0.20;0.10;;;10.30;99.90;;;;;;6247266;22;20023;-82
2021/10/18 01:27:12;;;;;;;0.00;0.00;;;10.30;99.90;;;;;;6247487;22;20015;-82
2021/10/18 01:29:39;;;;;;;0.00;0.00;;;10.30;99.90;;;;;;6297226;22;20340;-82
2021/10/18 01:32:07;;;;;;;0.08;0.08;;;10.30;99.90;;;;;;6297750;22;20099;-82
2021/10/18 01:34:34;;;;;;;0.00;0.00;;;10.30;99.90;;;;;;6297468;22;20098;-82
2021/10/18 01:37:03;;;;;;;0.35;0.30;;;10.30;99.90;;;;;;6298722;22;20046;-82
2021/10/18 01:39:30;;;;;;;0.00;0.00;;;10.30;99.90;;;;;;6299580;22;20011;-82
2021/10/18 01:41:56;;;;;;;0.00;0.00;;;10.30;99.90;;;;;;6325068;22;20057;-82
2021/10/18 01:44:23;;;;;;;0.15;0.10;;;10.30;99.90;;;;;;6249328;22;20444;-82
2021/10/18 01:46:50;;;;;;;0.20;0.20;;;10.30;99.90;;;;;;6274531;22;20085;-82
2021/10/18 01:49:17;;;;;;;0.03;0.03;;;10.30;99.90;;;;;;6299747;22;20234;-82
2021/10/18 01:51:43;;;;;;;0.10;0.10;;;10.30;99.90;;;;;;6249128;22;20023;-82
2021/10/18 01:54:10;;;;;;;0.00;0.00;;;10.30;99.90;;;;;;6249230;22;20020;-82
2021/10/18 01:56:37;;;;;;;0.00;0.00;;;10.30;99.90;;;;;;6249308;22;20011;-82
2021/10/18 01:59:03;;;;;;;0.00;0.00;;;10.30;99.90;;;;;;6249216;22;20007;-82
2021/10/18 02:01:30;;;;;;;0.00;0.00;;;10.30;99.90;;;;;;6299224;22;20044;-82
2021/10/18 02:03:57;;;;;;;0.00;0.00;;;10.30;99.90;;;;;;6274275;22;20383;-82
2021/10/18 02:06:24;;;;;;;0.00;0.00;;;10.40;99.90;;;;;;6273973;22;20352;-82
2021/10/18 02:08:51;;;;;;;0.20;0.20;;;10.30;99.90;;;;;;6248861;22;20022;-82
2021/10/18 02:11:17;;;;;;;0.00;0.00;;;10.30;99.90;;;;;;6299260;22;20023;-82
2021/10/18 02:13:44;;;;;;;0.30;0.25;;;10.30;99.90;;;;;;6273984;22;20463;-82
2021/10/18 02:16:11;;;;;;;0.25;0.10;;;10.20;99.90;;;;;;6274123;22;20094;-82
2021/10/18 02:18:37;;;;;;;0.08;0.08;;;10.20;99.90;;;;;;6274185;22;20019;-82
2021/10/18 02:21:05;;;;;;;0.00;0.00;;;10.20;99.90;;;;;;6299350;22;20011;-82
2021/10/18 02:23:32;;;;;;;0.00;0.00;;;10.20;99.90;;;;;;6248929;22;20015;-82
2021/10/18 02:25:58;;;;;;;0.00;0.00;;;10.20;99.90;;;;;;6299573;22;20019;-82
2021/10/18 02:28:25;;;;;;;0.00;0.00;;;10.20;99.90;;;;;;6299401;22;20340;-81
2021/10/18 02:30:52;;;;;;;0.13;0.10;;;10.20;99.90;;;;;;6248768;22;20026;-82
2021/10/18 02:33:19;;;;;;;0.00;0.00;;;10.20;99.90;;;;;;6249043;22;20098;-82
2021/10/18 02:35:46;;;;;;;0.00;0.00;;;10.20;99.90;;;;;;6248631;22;20007;-82
2021/10/18 02:38:12;;;;;;;0.00;0.00;;;10.10;99.90;;;;;;6274240;22;20015;-82
2021/10/18 02:40:39;;;;;;;0.10;0.10;;;10.20;99.90;;;;;;6273460;22;20021;-82
2021/10/18 02:43:06;;;;;;;0.28;0.13;;;10.10;99.90;;;;;;6274056;22;20020;-82
2021/10/18 02:45:32;;;;;;;0.00;0.00;;;10.20;99.90;;;;;;6248718;22;20019;-82
2021/10/18 02:47:59;;;;;;;0.00;0.00;;;10.10;99.90;;;;;;6248953;22;20011;-82
2021/10/18 02:50:26;;;;;;;0.03;0.03;;;10.10;99.90;;;;;;6299106;22;20051;-82
2021/10/18 02:52:53;;;;;;;0.00;0.00;;;10.20;99.90;;;;;;6273346;22;20019;-82
2021/10/18 02:55:20;;;;;;;0.08;0.08;;;10.10;99.90;;;;;;6274092;22;20444;-82
2021/10/18 02:57:46;;;;;;;0.00;0.00;;;10.30;99.90;;;;;;6248548;22;20011;-82
2021/10/18 03:00:13;;;;;;;0.05;0.05;;;10.20;99.90;;;;;;6298991;22;20018;-82
2021/10/18 03:02:40;;;;;;;0.00;0.00;;;10.10;99.90;;;;;;6248465;22;20068;-82
2021/10/18 03:05:07;;;;;;;0.00;0.00;;;10.10;99.90;;;;;;6248596;22;20405;-82
2021/10/18 03:07:34;;;;;;;0.00;0.00;;;10.10;99.90;;;;;;6273190;22;20050;-82
2021/10/18 03:10:01;;;;;;;0.00;0.00;;;10.10;99.90;;;;;;6273634;22;20019;-82
2021/10/18 03:12:28;;;;;;;1.00;0.20;;;10.10;99.90;;;;;;6273730;22;20015;-82
2021/10/18 03:14:54;;;;;;;0.03;0.03;;;10.10;99.90;;;;;;6273398;22;20053;-82
2021/10/18 03:17:21;;;;;;;0.55;0.17;;;10.10;99.90;;;;;;6298834;22;20022;-82
2021/10/18 03:19:48;;;;;;;0.10;0.10;;;10.10;99.90;;;;;;6298653;22;20015;-82
2021/10/18 03:22:14;;;;;;;0.00;0.00;;;10.10;99.90;;;;;;6248556;22;20019;-82
2021/10/18 03:24:41;;;;;;;0.05;0.05;;;10.00;99.90;;;;;;6273606;22;20015;-82
2021/10/18 03:27:08;;;;;;;0.00;0.00;;;10.00;99.90;;;;;;6298696;22;20023;-82
2021/10/18 03:29:35;;;;;;;0.00;0.00;;;10.00;99.90;;;;;;6298472;22;20443;-82
2021/10/18 03:32:01;;;;;;;0.10;0.10;;;10.10;99.90;;;;;;6248503;22;20019;-82
2021/10/18 03:34:28;;;;;;;0.00;0.00;;;10.00;99.90;;;;;;6298881;22;20448;-82
2021/10/18 03:36:55;;;;;;;0.00;0.00;;;10.00;99.90;;;;;;6248251;22;20018;-82
2021/10/18 03:39:22;;;;;;;0.00;0.00;;;10.00;99.90;;;;;;6273477;22;20340;-82
2021/10/18 03:41:48;;;;;;;0.17;0.10;;;10.00;99.90;;;;;;6272996;22;20019;-81
2021/10/18 03:44:15;;;;;;;0.00;0.00;;;10.00;99.90;;;;;;6248695;22;20072;-82
2021/10/18 03:46:42;;;;;;;0.00;0.00;;;10.00;99.90;;;;;;6298554;22;20015;-82
2021/10/18 03:49:08;;;;;;;0.00;0.00;;;10.00;99.90;;;;;;6248260;22;20021;-82
2021/10/18 03:51:35;;;;;;;0.32;0.30;;;9.90;99.90;;;;;;6298699;22;20019;-82
2021/10/18 03:54:02;;;;;;;0.00;0.00;;;9.90;99.90;;;;;;6247938;22;20022;-82
2021/10/18 03:56:28;;;;;;;0.05;0.05;;;10.00;99.90;;;;;;6298520;22;20026;-82
2021/10/18 03:58:55;;;;;;;0.25;0.25;;;9.90;99.90;;;;;;6297745;22;20015;-82
2021/10/18 04:01:22;;;;;;;0.03;0.03;;;9.90;99.90;;;;;;6273244;22;20061;-82
2021/10/18 04:03:49;;;;;;;0.05;0.05;;;9.80;99.90;;;;;;6247800;22;20007;-82
2021/10/18 04:06:15;;;;;;;0.05;0.05;;;9.80;99.90;;;;;;6323964;22;20015;-82
2021/10/18 04:08:42;;;;;;;0.00;0.00;;;9.80;99.90;;;;;;6297939;22;20050;-82
2021/10/18 04:11:09;;;;;;;0.00;0.00;;;9.80;99.90;;;;;;6298506;22;20021;-82
2021/10/18 04:13:36;;;;;;;0.20;0.20;;;9.80;99.90;;;;;;6273040;22;20015;-82
2021/10/18 04:16:03;;;;;;;0.00;0.00;;;9.80;99.90;;;;;;6273132;22;20090;-82
2021/10/18 04:18:29;;;;;;;0.05;0.05;;;9.70;99.90;;;;;;6248144;22;20451;-82
2021/10/18 04:20:56;;;;;;;0.10;0.10;;;9.70;99.90;;;;;;6247797;22;20069;-82
2021/10/18 04:23:23;;;;;;;0.10;0.10;;;9.60;99.90;;;;;;6298166;22;20072;-82
2021/10/18 04:25:49;;;;;;;0.13;0.13;;;9.60;99.90;;;;;;6247281;22;20094;-82
2021/10/18 04:28:16;;;;;;;0.00;0.00;;;9.50;99.90;;;;;;6272849;22;20019;-82
2021/10/18 04:30:43;;;;;;;0.00;0.00;;;9.50;99.90;;;;;;6297732;22;20015;-82
2021/10/18 04:33:10;;;;;;;0.10;0.10;;;9.50;99.90;;;;;;6297979;22;20019;-82
2021/10/18 04:35:37;;;;;;;0.10;0.10;;;9.40;99.90;;;;;;6272829;22;20461;-82
2021/10/18 04:38:04;;;;;;;0.00;0.00;;;9.40;99.90;;;;;;6272695;22;20018;-82
2021/10/18 04:40:31;;;;;;;0.13;0.10;;;9.30;99.90;;;;;;6297828;22;20080;-82
2021/10/18 04:42:58;;;;;;;0.00;0.00;;;9.30;99.90;;;;;;6297857;22;20030;-82
2021/10/18 04:45:25;;;;;;;0.10;0.10;;;9.30;99.90;;;;;;6297875;22;20015;-82
2021/10/18 04:47:52;;;;;;;0.20;0.20;;;9.20;99.90;;;;;;6323565;22;20016;-82
2021/10/18 04:50:20;;;;;;;0.00;0.00;;;9.20;99.90;;;;;;6272710;22;20019;-82
2021/10/18 04:52:49;;;;;;;0.00;0.00;;;9.20;99.90;;;;;;6297623;22;20468;-82
2021/10/18 04:55:16;;;;;;;0.00;0.00;;;9.20;99.90;;;;;;6272170;22;20463;-82
2021/10/18 04:57:53;;;;;;;0.00;0.00;;;9.20;99.90;;;;;;6323378;22;20011;-82
2021/10/18 05:00:23;;;;;;;0.22;0.10;;;9.20;99.90;;;;;;6297614;22;20016;-81
2021/10/18 05:02:50;;;;;;;0.10;0.10;;;9.20;99.90;;;;;;6297639;22;20054;-82
2021/10/18 05:05:18;;;;;;;0.10;0.10;;;9.40;99.90;;;;;;6298041;22;20501;-82
2021/10/18 05:07:44;;;;;;;0.10;0.10;;;9.50;99.90;;;;;;6272960;22;20089;-81
2021/10/18 05:10:13;;;;;;;0.28;0.17;;;9.40;99.90;;;;;;6247423;22;20013;-82
2021/10/18 05:12:40;;;;;;;0.00;0.00;;;9.20;99.90;;;;;;6298004;22;20080;-82
2021/10/18 05:15:08;;;;;;;0.00;0.00;;;9.20;99.90;;;;;;6297551;22;20023;-82
2021/10/18 05:17:35;;;;;;;0.03;0.03;;;9.20;99.90;;;;;;6298255;22;20019;-82
2021/10/18 05:20:02;;;;;;;0.10;0.10;;;9.20;99.90;;;;;;6272271;22;20457;-82
2021/10/18 05:22:29;;;;;;;0.00;0.00;;;9.20;99.90;;;;;;6297653;22;20011;-82
2021/10/18 05:24:55;;;;;;;0.00;0.00;;;9.20;99.90;;;;;;6272049;22;20107;-82
2021/10/18 05:27:22;;;;;;;0.00;0.00;;;9.20;99.90;;;;;;6323313;22;20069;-82
2021/10/18 05:29:49;;;;;;;0.00;0.00;;;9.10;99.90;;;;;;6247587;22;20019;-82
2021/10/18 05:32:15;;;;;;;0.00;0.00;;;9.10;99.90;;;;;;6247339;22;20026;-82
2021/10/18 05:34:42;;;;;;;0.10;0.10;;;9.10;99.90;;;;;;6297425;22;20015;-82
2021/10/18 05:37:09;;;;;;;0.20;0.20;;;9.00;99.90;;;;;;6297616;22;20543;-82
2021/10/18 05:39:35;;;;;;;0.10;0.10;;;9.00;99.90;;;;;;6298158;22;20470;-82
2021/10/18 05:42:02;;;;;;;0.00;0.00;;;9.00;99.90;;;;;;6322400;22;20051;-82
2021/10/18 05:44:29;;;;;;;0.00;0.00;;;8.90;99.90;;;;;;6247513;22;20026;-82
2021/10/18 05:46:56;;;;;;;0.10;0.10;;;8.90;99.90;;;;;;6322540;22;20102;-82
2021/10/18 05:49:22;;;;;;;0.05;0.05;;;8.80;99.90;;;;;;6246719;22;20057;-82
2021/10/18 05:51:49;;;;;;;0.00;0.00;;;8.80;99.90;;;;;;6271926;22;20030;-82
2021/10/18 05:54:16;;;;;;;0.00;0.00;;;8.80;99.90;;;;;;6246686;22;20397;-81
2021/10/18 05:56:43;;;;;;;0.35;0.32;;;8.80;99.90;;;;;;6296906;22;20327;-82
2021/10/18 05:59:09;;;;;;;0.10;0.10;;;8.70;99.90;;;;;;6246099;22;20094;-82
2021/10/18 06:01:36;;;;;;;0.10;0.10;;;8.70;99.90;;;;;;6272282;22;20015;-82
2021/10/18 06:04:03;;;;;;;0.00;0.00;;;8.70;99.90;;;;;;6297173;22;20015;-82
2021/10/18 06:06:35;;;;;;;0.10;0.10;;;8.60;99.90;;;;;;6247189;22;20015;-81
2021/10/18 06:09:06;;;;;;;0.00;0.00;;;8.60;99.90;;;;;;6248845;22;20053;-82
2021/10/18 06:11:33;;;;;;;0.00;0.00;;;8.60;99.90;;;;;;6323096;22;20072;-82
2021/10/18 06:14:00;;;;;;;0.20;0.20;;;8.60;99.90;;;;;;6297079;22;20474;-79
2021/10/18 06:16:26;;;;;;;0.10;0.10;;;8.60;99.90;;;;;;6247145;22;20047;-81
2021/10/18 06:18:53;;;;;;;0.00;0.00;;;8.50;99.90;;;;;;6246957;22;20007;-82
2021/10/18 06:21:20;;;;;;;0.10;0.10;;;8.50;99.90;;;;;;6271844;22;20141;-82
2021/10/18 06:23:46;;;;;;;0.10;0.10;;;8.50;99.90;;;;;;6273376;22;20027;-82
2021/10/18 06:26:13;;;;;;;0.10;0.10;;;8.50;99.90;;;;;;6248739;22;20019;-82
2021/10/18 06:28:41;;;;;;;0.00;0.00;;;8.50;99.90;;;;;;6249077;22;20077;-82
2021/10/18 06:31:07;;;;;;;0.05;0.05;;;8.50;99.90;;;;;;6298982;22;20029;-82
2021/10/18 06:33:35;;;;;;;0.10;0.10;;;8.50;99.90;;;;;;6324499;22;20448;-82
2021/10/18 06:36:02;;;;;;;0.13;0.13;;;8.50;99.90;;;;;;6298899;22;20011;-82
2021/10/18 06:38:29;;;;;;;0.10;0.10;;;8.50;99.90;;;;;;6298889;22;20099;-82
2021/10/18 06:40:56;;;;;;;0.10;0.10;;;8.50;99.90;;;;;;6298829;22;20015;-83
2021/10/18 06:43:23;;;;;;;0.10;0.10;;;8.60;99.90;;;;;;6273453;22;20021;-82
2021/10/18 06:45:50;;;;;;;0.10;0.10;;;8.60;99.90;;;;;;6324322;22;20098;-82
2021/10/18 06:48:17;;;;;;;0.10;0.10;;;8.60;99.90;;;;;;6248484;22;20019;-82
2021/10/18 06:50:45;;;;;;;0.00;0.00;;;8.70;99.90;;;;;;6299141;22;20098;-82
2021/10/18 06:53:17;;;;;;;0.03;0.03;;;8.80;99.90;;;;;;6298253;22;20394;-82
2021/10/18 06:55:45;;;;;;;0.00;0.00;;;8.80;99.90;;;;;;6298610;22;20072;-82
2021/10/18 06:58:12;;;;;;;0.10;0.10;;;8.90;99.90;;;;;;6323933;22;20018;-82
2021/10/18 07:00:39;;;;;;;0.00;0.00;;;8.90;99.90;;;;;;6298986;22;20435;-82
2021/10/18 07:03:05;;;;;;;0.03;0.03;;;9.00;99.90;;;;;;6248264;22;20077;-82
2021/10/18 07:05:32;;;;;;;0.73;0.47;;;9.00;99.90;;;;;;6273558;22;20522;-82
2021/10/18 07:07:59;;;;;;;0.80;0.28;;;9.10;99.90;;;;;;6298694;22;20046;-82
2021/10/18 07:10:26;;;;;;;0.08;0.08;;;9.20;99.90;;;;;;6273597;22;20073;-82
2021/10/18 07:12:52;;;;;;;0.00;0.00;;;9.20;99.90;;;;;;6299160;22;20041;-82
2021/10/18 07:15:19;;;;;;;0.10;0.10;;;9.30;99.90;;;;;;6299003;22;20027;-82
2021/10/18 07:17:46;;;;;;;0.20;0.20;;;9.40;99.90;;;;;;6298527;22;20026;-82
2021/10/18 07:20:12;;;;;;;0.05;0.05;;;9.40;99.90;;;;;;6247762;22;20098;-83
2021/10/18 07:22:43;;;;;;;0.08;0.08;;;9.50;99.90;;;;;;6248292;22;20023;-82
2021/10/18 07:25:14;;;;;;;0.10;0.10;;;9.50;99.90;;;;;;6299811;22;20015;-83
2021/10/18 07:27:43;;;;;;;0.10;0.10;;;9.60;99.90;;;;;;6273513;22;20065;-82
2021/10/18 07:30:11;;;;;;;0.00;0.00;;;9.70;99.90;;;;;;6248632;22;20407;-82
2021/10/18 07:32:42;;;;;;;0.00;0.00;;;9.70;99.90;;;;;;6298776;22;20019;-82
2021/10/18 07:35:10;;;;;;;0.00;0.00;;;9.70;99.90;;;;;;6249458;22;20019;-82
2021/10/18 07:37:37;;;;;;;0.10;0.10;;;9.80;99.90;;;;;;6273724;22;20236;-82
2021/10/18 07:40:05;;;;;;;0.10;0.10;;;9.90;99.90;;;;;;6298661;22;20016;-82
2021/10/18 07:42:31;;;;;;;0.00;0.00;;;9.90;99.90;;;;;;6247888;22;20019;-82
2021/10/18 07:44:58;;;;;;;0.47;0.30;;;10.00;99.90;;;;;;6273193;22;20018;-82
2021/10/18 07:47:25;;;;;;;0.00;0.00;;;10.10;99.90;;;;;;6272904;22;20073;-82
2021/10/18 07:49:54;;;;;;;0.03;0.03;;;10.10;99.90;;;;;;6248411;22;20026;-82
2021/10/18 07:52:21;;;;;;;0.00;0.00;;;10.10;99.90;;;;;;6273028;22;20030;-82
2021/10/18 07:54:52;;;;;;;0.00;0.00;;;10.20;99.90;;;;;;6298550;22;20015;-82
2021/10/18 07:57:19;;;;;;;0.10;0.10;;;10.20;99.90;;;;;;6273839;22;20409;-82
2021/10/18 07:59:46;;;;;;;0.00;0.00;;;10.30;99.90;;;;;;6273046;22;20016;-82
2021/10/18 08:02:12;;;;;;;0.00;0.00;;;10.30;99.90;;;;;;6247623;22;20011;-82
2021/10/18 08:04:39;;;;;;;0.10;0.10;;;10.40;99.90;;;;;;6272645;22;20076;-82
2021/10/18 08:07:06;;;;;;;0.00;0.00;;;10.40;99.90;;;;;;6272631;22;20094;-82
2021/10/18 08:09:32;;;;;;;0.00;0.00;;;10.40;99.90;;;;;;6247594;22;20027;-82
2021/10/18 08:11:59;;;;;;;0.00;0.00;;;10.50;99.90;;;;;;6272851;22;20065;-82
2021/10/18 08:14:26;;;;;;;0.00;0.00;;;10.50;99.90;;;;;;6272348;22;20011;-82
2021/10/18 08:16:52;;;;;;;0.00;0.00;;;10.60;99.90;;;;;;6247879;22;20011;-83
2021/10/18 08:19:20;;;;;;;0.10;0.10;;;10.60;99.90;;;;;;6247841;22;20073;-82
2021/10/18 08:21:47;;;;;;;0.00;0.00;;;10.60;99.90;;;;;;6297853;22;20020;-83
2021/10/18 08:24:14;;;;;;;0.10;0.10;;;10.70;99.90;;;;;;6297814;22;20069;-82
2021/10/18 08:26:40;;;;;;;0.00;0.00;;;10.70;99.90;;;;;;6297729;22;20525;-82
2021/10/18 08:29:07;;;;;;;0.25;0.10;;;10.70;99.90;;;;;;6247553;22;20073;-82
2021/10/18 08:31:34;;;;;;;0.10;0.10;;;10.80;99.90;;;;;;6247496;22;20019;-82
2021/10/18 08:34:00;;;;;;;0.00;0.00;;;10.90;99.90;;;;;;6247368;22;20023;-82
2021/10/18 08:36:27;;;;;;;0.00;0.00;;;10.90;99.90;;;;;;6247211;22;20466;-82
2021/10/18 08:39:55;;;;;;;0.25;0.20;;;10.90;99.90;;;;;;6247662;22;20015;-82
2021/10/18 08:41:44;;;;;;;0.10;0.10;;;11.00;99.90;;;;;;6280261;22;20031;-82
2021/10/18 08:44:17;;;;;;;0.20;0.13;;;11.00;99.90;;;;;;6297649;22;20051;-82
2021/10/18 08:46:52;;;;;;;0.10;0.10;;;11.10;99.90;;;;;;6298124;22;20019;-82
2021/10/18 08:49:21;;;;;;;0.20;0.20;;;11.10;99.90;;;;;;6273405;22;20015;-84
2021/10/18 08:51:48;;;;;;;0.00;0.00;;;11.20;99.90;;;;;;6272902;22;20019;-84
2021/10/18 08:54:16;;;;;;;0.20;0.05;;;11.20;99.90;;;;;;6323476;22;20019;-83
2021/10/18 08:56:43;;;;;;;0.75;0.20;;;11.20;99.90;;;;;;6323136;22;20026;-85
2021/10/18 08:59:10;;;;;;;0.00;0.00;;;11.20;99.90;;;;;;6297919;22;20440;-84
2021/10/18 09:01:49;;;;;;;0.03;0.03;;;11.30;99.90;;;;;;6272287;22;20015;-84
2021/10/18 09:04:16;;;;;;;0.00;0.00;;;11.30;99.90;;;;;;6297753;22;20098;-82
2021/10/18 09:06:48;;;;;;;0.10;0.10;;;11.30;99.90;;;;;;6322938;22;20453;-83
2021/10/18 09:09:19;;;;;;;0.00;0.00;;;11.40;99.90;;;;;;6322991;22;20051;-86
2021/10/18 09:11:47;;;;;;;0.10;0.10;;;11.40;99.90;;;;;;6272992;22;20015;-87
2021/10/18 09:14:14;;;;;;;0.00;0.00;;;11.50;99.90;;;;;;6248429;22;20321;-87
2021/10/18 09:16:43;;;;;;;0.00;0.00;;;11.50;99.90;;;;;;6298101;22;20022;-86
2021/10/18 09:19:17;;;;;;;0.03;0.00;;;11.60;99.90;;;;;;6272631;22;20015;-85
2021/10/18 09:21:52;;;;;;;0.00;0.00;;;11.60;99.90;;;;;;6297369;22;20022;-84
2021/10/18 09:24:28;;;;;;;;;;;11.70;99.90;;;;;;6300890;22;20058;-86
2021/10/18 09:27:00;;;;;;;0.03;0.03;;;11.70;99.90;;;;;;6297273;22;19911;-81
2021/10/18 09:29:44;;;;;;;0.10;0.10;;;11.70;99.90;;;;;;6296882;22;20026;-82
2021/10/18 09:32:28;;;;;;;0.00;0.00;;;11.80;99.90;;;;;;6297556;22;20065;-82
2021/10/18 09:35:10;;;;;;;0.10;0.10;;;11.80;99.90;;;;;;6297280;22;20095;-81
2021/10/18 09:37:41;;;;;;;0.17;0.17;;;11.90;99.90;;;;;;6297404;22;20098;-83
2021/10/18 09:40:28;;;;;;;0.00;0.00;;;11.90;99.90;;;;;;6273179;22;20090;-82
2021/10/18 09:43:29;;;;;;;0.15;0.08;;;11.90;99.90;;;;;;6322652;22;20336;-82
2021/10/18 10:53:32;;;;;;;0.10;0.10;;;13.20;99.90;;;;;;6324683;22;20019;-81
2021/10/18 10:56:16;;;;;;;0.30;0.30;;;13.20;99.90;;;;;;6298936;22;20057;-81
2021/10/18 10:58:53;;;;;;;0.10;0.10;;;13.20;99.90;;;;;;6298848;22;20069;-81
2021/10/18 11:01:42;;;;;;;0.25;0.25;;;13.20;99.90;;;;;;6275848;22;20015;-81
2021/10/18 11:04:30;;;;;;;0.10;0.10;;;13.30;99.90;;;;;;6298592;22;20090;-81
2021/10/18 11:07:09;;;;;;;0.00;0.00;;;13.40;99.90;;;;;;6298610;22;20015;-81
2021/10/18 11:09:37;;;;;;;0.10;0.10;;;13.40;99.90;;;;;;6298862;22;20019;-81
2021/10/18 11:12:09;;;;;;;0.00;0.00;;;13.50;99.90;;;;;;6298925;22;20012;-81
2021/10/18 11:14:36;;;;;;;0.32;0.28;;;13.50;99.90;;;;;;6324181;22;20011;-79
2021/10/18 11:17:03;;;;;;;0.20;0.20;;;13.60;99.90;;;;;;6298469;22;20466;-80
2021/10/18 11:19:30;;;;;;;0.10;0.10;;;13.60;99.90;;;;;;6248442;22;20092;-79
2021/10/18 11:21:59;;;;;;;0.22;0.08;;;13.60;99.90;;;;;;6297609;22;20081;-79
2021/10/18 11:24:40;;;;;;;0.10;0.10;;;13.60;99.90;;;;;;6298490;22;20019;-78
2021/10/18 11:27:07;;;;;;;0.00;0.00;;;13.60;99.90;;;;;;6299543;22;20094;-79
2021/10/18 11:29:34;;;;;;;0.22;0.10;;;13.70;99.90;;;;;;6298336;22;20042;-79
2021/10/18 11:32:09;;;;;;;0.20;0.10;;;13.70;99.90;;;;;;6248209;22;20443;-78
2021/10/18 11:34:36;;;;;;;0.00;0.00;;;13.70;99.90;;;;;;6298896;22;20020;-78
2021/10/18 11:37:03;;;;;;;0.10;0.10;;;13.60;99.90;;;;;;6247765;22;20061;-78
2021/10/18 11:39:30;;;;;;;0.00;0.00;;;13.70;99.90;;;;;;6298758;22;20065;-78
2021/10/18 11:42:13;;;;;;;0.25;0.22;;;13.70;99.90;;;;;;6248339;22;20122;-78
2021/10/18 11:44:42;;;;;;;0.00;0.00;;;13.70;99.90;;;;;;6298350;22;20026;-79
2021/10/18 11:47:37;;;;;;;0.00;0.00;;;13.80;99.90;;;;;;6298045;22;20019;-79
2021/10/18 11:50:11;;;;;;;0.45;0.30;;;13.90;99.90;;;;;;6276154;22;20015;-78
2021/10/18 11:52:49;;;;;;;0.20;0.20;;;13.90;99.90;;;;;;6298267;22;20041;-79
2021/10/18 11:55:25;;;;;;;0.10;0.10;;;13.90;99.90;;;;;;6298367;22;20019;-79
2021/10/18 11:57:53;;;;;;;0.08;0.05;;;14.00;99.90;;;;;;6297701;22;20069;-79
2021/10/18 12:00:21;;;;;;;0.30;0.10;;;14.00;99.90;;;;;;6273111;22;20072;-79
2021/10/18 12:02:48;;;;;;;0.08;0.08;;;14.10;99.90;;;;;;6297619;22;20019;-78
2021/10/18 12:05:16;;;;;;;0.00;0.00;;;14.20;99.90;;;;;;6298031;22;20011;-79
2021/10/18 12:07:49;;;;;;;0.30;0.28;;;14.20;99.90;;;;;;6298366;22;20019;-79
2021/10/18 12:10:27;;;;;;;0.00;0.00;;;14.10;99.90;;;;;;6324100;22;20023;-79
2021/10/18 12:13:04;;;;;;;0.63;0.30;;;14.10;99.90;;;;;;6298074;22;20022;-78
2021/10/18 12:15:33;;;;;;;0.00;0.00;;;14.10;99.90;;;;;;6298560;22;20490;-79
2021/10/18 12:18:00;;;;;;;0.00;0.00;;;14.10;99.90;;;;;;6298268;22;20347;-79
2021/10/18 12:20:27;;;;;;;0.10;0.10;;;14.10;99.90;;;;;;6297450;22;20019;-79
2021/10/18 12:23:05;;;;;;;0.63;0.32;;;14.00;99.90;;;;;;6297875;22;20019;-78
2021/10/18 12:25:34;;;;;;;0.00;0.00;;;14.00;99.90;;;;;;6323571;22;20736;-79
2021/10/18 12:28:29;;;;;;;0.17;0.10;;;14.00;99.90;;;;;;6322951;22;20015;-79
2021/10/18 12:30:59;;;;;;;0.47;0.32;;;14.00;99.90;;;;;;6297514;22;20019;-79
2021/10/18 12:33:39;;;;;;;0.13;0.10;;;14.00;99.90;;;;;;6298425;22;20023;-78
2021/10/18 12:36:07;;;;;;;0.00;0.00;;;14.10;99.90;;;;;;6297450;22;20047;-78
2021/10/18 12:38:40;;;;;;;0.30;0.20;;;14.10;99.90;;;;;;6272354;22;20015;-78
2021/10/18 12:41:09;;;;;;;0.10;0.10;;;14.10;99.90;;;;;;6297232;22;20598;-78
2021/10/18 12:43:36;;;;;;;0.00;0.00;;;14.20;99.90;;;;;;6297813;22;20114;-78
2021/10/18 12:46:26;;;;;;;0.32;0.20;;;14.20;99.90;;;;;;6272294;22;20019;-78
2021/10/18 12:49:02;;;;;;;0.00;0.00;;;14.20;99.90;;;;;;6322909;22;20019;-78
2021/10/18 12:51:35;;;;;;;0.03;0.03;;;14.20;99.90;;;;;;6323207;22;20027;-78
2021/10/18 12:54:22;;;;;;;0.15;0.15;;;14.30;99.90;;;;;;6322655;22;20015;-78
2021/10/18 12:57:06;;;;;;;0.00;0.00;;;14.30;99.90;;;;;;6322644;22;20015;-79
2021/10/18 12:59:35;;;;;;;0.00;0.00;;;14.40;99.90;;;;;;6323496;22;20016;-78
2021/10/18 13:02:22;;;;;;;0.10;0.10;;;14.50;99.90;;;;;;6322808;22;20630;-78
2021/10/18 13:05:09;;;;;;;0.00;0.00;;;14.50;99.90;;;;;;6274220;22;20019;-79
2021/10/18 13:07:45;;;;;;;0.20;0.10;;;14.50;99.90;;;;;;6297365;22;20022;-78
2021/10/18 13:10:15;;;;;;;0.08;0.08;;;14.50;99.90;;;;;;6297529;22;20451;-77
2021/10/18 13:12:43;;;;;;;0.10;0.10;;;14.40;99.90;;;;;;6297908;22;20030;-78
2021/10/18 13:15:12;;;;;;;0.00;0.00;;;14.40;99.90;;;;;;6272368;22;20020;-78
2021/10/18 13:17:39;;;;;;;0.10;0.10;;;14.40;99.90;;;;;;6272804;22;20068;-77
2021/10/18 13:20:07;;;;;;;0.30;0.30;;;14.30;99.90;;;;;;6271787;22;20007;-78
2021/10/18 13:22:34;;;;;;;0.17;0.05;;;14.30;99.90;;;;;;6297449;22;20015;-78
2021/10/18 13:25:01;;;;;;;0.15;0.08;;;14.30;99.90;;;;;;6296924;22;20041;-76
2021/10/18 13:27:27;;;;;;;0.00;0.00;;;14.30;99.90;;;;;;6322518;22;20023;-77
2021/10/18 13:29:54;;;;;;;0.10;0.10;;;14.30;99.90;;;;;;6297329;22;20030;-77
2021/10/18 13:32:21;;;;;;;0.40;0.20;;;14.30;99.90;;;;;;6271359;22;20019;-77
2021/10/18 13:34:48;;;;;;;0.20;0.10;;;14.20;99.90;;;;;;6322551;22;20030;-77
2021/10/18 13:37:15;;;;;;;0.00;0.00;;;14.20;99.90;;;;;;6322521;22;20015;-82
2021/10/18 13:39:42;;;;;;;0.00;0.00;;;14.20;99.90;;;;;;6247686;22;20010;-83
2021/10/18 13:42:10;;;;;;;0.08;0.08;;;14.10;99.90;;;;;;6297304;22;20073;-84
2021/10/18 13:44:38;;;;;;;0.20;0.20;;;14.10;99.90;;;;;;6297716;22;20402;-82
2021/10/18 13:47:04;;;;;;;0.22;0.20;;;14.00;99.90;;;;;;6272376;22;20090;-81
2021/10/18 13:49:31;;;;;;;0.22;0.15;;;14.00;99.90;;;;;;6272388;22;20050;-81
2021/10/18 13:51:58;;;;;;;0.13;0.08;;;14.00;99.90;;;;;;6247219;22;20020;-82
2021/10/18 13:54:25;;;;;;;0.30;0.20;;;14.00;99.90;;;;;;6272480;22;20025;-81
2021/10/18 13:56:51;;;;;;;0.00;0.00;;;14.00;99.90;;;;;;6247505;22;20015;-81
2021/10/18 13:59:18;;;;;;;0.08;0.03;;;14.00;99.90;;;;;;6272090;22;20080;-84
2021/10/18 14:01:48;;;;;;;0.13;0.13;;;14.00;99.90;;;;;;6323596;22;20444;-82
2021/10/18 14:04:16;;;;;;;0.10;0.10;;;14.00;99.90;;;;;;6297905;22;20378;-81
2021/10/18 14:06:44;;;;;;;0.00;0.00;;;14.00;99.90;;;;;;6297905;22;20019;-83